Pisgah Forest, NC (28768)

12:20 AM EDT del 31 Agosto 2016 (GMT -0400)
Little River | | Change Station

Alt. 2116 ft 35.24 °N, 82.64 °W | Updated 7 seconds ago

Clear
Sereno
67.1 °F
Sembra 67.1 °F
N
0.0
Vento Variabile Vento da NNE
Gusts 0.0 mph

Oggi
Massima -- | Minima -- °F
--% Possibilità di precip.
Ieri
Massima -- | Minima -- °F
Precip. -- in
Pressione 30.06 in
Visibilità 10.0 miglia
Nuvole Sereno
Punto di rugiada 63 °F
Umidità 88%
Piovosità 0.00 in
Spessore del manto nevoso Non disponibile.
7:02 AM 7:58 PM
Luna calante, 2% visible
METAR KAVL 310354Z AUTO 00000KT 10SM CLR 21/18 A3015 RMK AO2 SLP180 T02060178
Pressione 30.06 in
Visibilità 10.0 miglia
Nuvole Sereno
Punto di rugiada 63 °F
Umidità 88%
Piovosità 0.00 in
Spessore del manto nevoso Non disponibile.
7:02 AM 7:58 PM
Luna calante, 2% visible
METAR KAVL 310354Z AUTO 00000KT 10SM CLR 21/18 A3015 RMK AO2 SLP180 T02060178

10-Day Weather Forecast

Almanac

Astronomia

Aug. 31, 2016 Alba Tramonto
Ora attuale
Crepuscolo civile
Crepuscolo nautico
Crepuscolo astronomico
Luna
Estensione della luce visibile
Lunghezza del giorno
Tomorrow will be .
, % of the Moon is Illuminated

Gli estremi di oggi

State Highs State Lows

Community

WunderPhotos

Upload Photos

1,936,032 foto caricate!

WunderBlog® & News

Nearby

Qualità dell'aria

  Qualità dell'aria Indice AQ Inquinante
Not available.

Profondità neve

Stazione Profondità Altitudine

Attività sismica

Città  Distanza Mag. Data & Ora
Minimo Magnitudo Mostrato è 2.5.

Temperature delle acque costiere

Località Temperatura

Stations

Stazioni meteo nelle vicinanze

Ubicazione della stazione Temp. Raffreddamento del vento Punto di rugiada Umidità Vento Precip. Alt. Aggiornato Tipo
                   

Watches & Warnings

There are currently no watches in effect.